Etusivu
METAR-TAF:

METAR-TAF

Lentoasemat :

Jim Hogg County Airport

Hebbronville, Texas, Yhdysvallat

Leveyspiiri: 27-20N, Pituuspiiri: 098-44W, korkeus merenpinnasta: 202 m

Tämänhetkinen sää

Tämä raportti tehtiin 32 minuuttia sitten, kello 18.50 UTC
Tuuli 6 kn idästä/kaakosta
Lämpötila 36°C
Kosteus 50%
Ilmanpaine 1007 hPa
Näkyvyys: 8.0 km
Hajanaisia pilviä 4500 ft:n korkeudessa
usvaa

METAR: KHBV 261850Z AUTO 12006KT 5SM HZ SCT045 36/24 A2974 RMK AO2 T03570237

Aika: 14:22 (19:22 UTC)


TAF: puuttuu

Säähavainnot ja -ennusteet yli 4000 lentoasemalta (METAR- ja TAF-raportit).

Käytössä olevat sääasemat on merkitty karttaan keltaisilla ja punaisilla pisteillä.

Aseta hiiri pisteen päälle nähdäksesi sääaseman nimen.

Klikkaa sitten nähdäksesi säähavainnot ja -ennusteet.

Kartan vaihtaminen: klikkaa mustalla rastilla varustettuja vihreitä pisteitä, niin voit zoomata sisään; viivalla varustettua vihreää pistettä, niin voit zoomata ulos tai vihreitä nuolia, niin pääset viereisille kartoille.


METAR-TAF: